Flight Track Log - Related Links

Times and Time Zones

All times are in EDT time to prevent confusion due to time zone crossing. See the GLA49W flight status page for this flight to view local times or setup timezone preferences in your user account.

Time Position Orientation Groundspeed Altitude Reporting Facility
EDT Latitude Longitude Course Direction KTS MPH feet Rate Location/Type
Thu 04:43:15 PM 48.0923 -103.5837 347° North  Level FlightAware Approximate
Thu 04:44:15 PM 48.0177 -103.5675 350° North  Level FlightAware Approximate
Thu 04:45:15 PM 47.9431 -103.5514 350° North  Level FlightAware Approximate
Thu 04:46:15 PM 47.9053 -103.4581 339° North  Level FlightAware Approximate
Thu 04:47:15 PM 47.8377 -103.4084 338° Northwest  Level FlightAware Approximate
Thu 04:48:15 PM 47.7625 -103.3999 341° North  Level FlightAware Approximate
Thu 04:49:03 PM 48.1625 -103.6072 160° South 155 178 2,900  Level Salt Lake Center
Thu 04:50:05 PM 48.1069 -103.5775 169° South 196 226 4,500 1,659 Climbing Salt Lake Center
Thu 04:51:06 PM 48.0550 -103.5628 168° South 192 221 6,300 1,805 Climbing Salt Lake Center
Thu 04:52:08 PM 48.0022 -103.5467 166° South 192 221 8,200 1,756 Climbing Salt Lake Center
Thu 04:53:09 PM 47.9522 -103.5275 180° South 188 216 9,900 1,561 Climbing Salt Lake Center
Thu 04:54:11 PM 47.8981 -103.5275 182° South 194 223 11,400 1,659 Climbing Salt Lake Center
Thu 04:55:12 PM 47.8431 -103.5306 181° South 197 227 13,300 1,854 Climbing Salt Lake Center
Thu 04:56:14 PM 47.7903 -103.5314 179° South 194 223 15,200 1,306 Climbing Salt Lake Center
Thu 04:57:16 PM 47.7386 -103.5306 183° South 189 217 16,000 829 Climbing Salt Lake Center
Thu 04:58:17 PM 47.6797 -103.5358 180° South 202 232 16,900 1,024 Climbing Salt Lake Center
Thu 04:59:19 PM 47.6078 -103.5367 181° South 210 242 18,100 1,016 Climbing Salt Lake Center
Thu 05:00:21 PM 47.5467 -103.5383 180° South 214 246 19,000 878 Climbing Salt Lake Center
Thu 05:01:22 PM 47.4842 -103.5378 179° South 219 252 19,900 829 Climbing Salt Lake Center
Thu 05:02:24 PM 47.4222 -103.5358 179° South 220 253 20,700 780 Climbing Salt Lake Center
Thu 05:03:25 PM 47.3608 -103.5350 178° South 221 254 21,500 683 Climbing Salt Lake Center
Thu 05:04:27 PM 47.2997 -103.5314 179° South 221 254 22,100 634 Climbing Salt Lake Center
Thu 05:05:28 PM 47.2378 -103.5297 178° South 221 254 22,800 634 Climbing Salt Lake Center
Thu 05:06:30 PM 47.1769 -103.5261 176° South 220 253 23,400 532 Climbing Salt Lake Center
Thu 05:07:32 PM 47.1167 -103.5197 176° South 219 252 23,900 585 Climbing Salt Lake Center
Thu 05:08:33 PM 47.0444 -103.5114 176° South 218 251 24,600 537 Climbing Salt Lake Center
Thu 05:09:35 PM 46.9842 -103.5053 178° South 217 250 25,000 244 Climbing Salt Lake Center
Thu 05:10:36 PM 46.9203 -103.5019 179° South 222 255 25,100 49 Climbing Salt Lake Center
Thu 05:11:38 PM 46.8511 -103.4994 179° South 234 269 25,100 -48 Level Salt Lake Center
Thu 05:12:40 PM 46.7792 -103.4983 179° South 247 284 25,000 -49 Descending Salt Lake Center
Thu 05:13:41 PM 46.7061 -103.4958 180° South 256 295 25,000  Level Salt Lake Center
Thu 05:14:43 PM 46.6314 -103.4956 179° South 262 302 25,000  Level Salt Lake Center
Thu 05:15:45 PM 46.5422 -103.4936 178° South 266 306 25,000  Level Salt Lake Center
Thu 05:16:47 PM 46.4675 -103.4903 179° South 267 307 25,000  Level Salt Lake Center
Thu 05:17:48 PM 46.3928 -103.4886 179° South 269 310 25,000  Level Salt Lake Center
Thu 05:18:50 PM 46.3172 -103.4867 179° South 270 311 25,000  Level Salt Lake Center
Thu 05:19:52 PM 46.2422 -103.4844 179° South 270 311 25,000  Level Salt Lake Center
Thu 05:20:54 PM 46.1681 -103.4822 179° South 269 310 25,000  Level Salt Lake Center
Thu 05:21:56 PM 46.0931 -103.4803 180° South 269 310 25,000  Level Salt Lake Center
Thu 05:22:57 PM 46.0044 -103.4794 175° South 268 308 25,000  Level Salt Lake Center
Thu 05:23:59 PM 45.9314 -103.4708 180° South 265 305 25,000  Level Salt Lake Center
Thu 05:25:01 PM 45.8564 -103.4711 179° South 268 308 25,000  Level Salt Lake Center
Thu 05:26:03 PM 45.7833 -103.4697 180° South 266 306 25,000  Level Salt Lake Center
Thu 05:27:05 PM 45.7078 -103.4697 180° South 269 310 25,000  Level Salt Lake Center
Thu 05:28:07 PM 45.6322 -103.4706 179° South 270 311 25,000  Level Salt Lake Center
Thu 05:29:08 PM 45.5572 -103.4678 179° South 270 311 25,000  Level Salt Lake Center
Thu 05:30:10 PM 45.4692 -103.4647 179° South 267 307 25,000  Level Salt Lake Center
Thu 05:31:12 PM 45.3975 -103.4625 179° South 261 300 25,000  Level Salt Lake Center
Thu 05:32:14 PM 45.3225 -103.4608 179° South 262 302 25,000  Level Salt Lake Center
Thu 05:33:16 PM 45.2517 -103.4589 178° South 262 302 25,000  Level Salt Lake Center
Thu 05:34:18 PM 45.1781 -103.4550 178° South 264 304 25,000  Level Salt Lake Center
Thu 05:35:20 PM 45.1006 -103.4517 178° South 263 303 25,000  Level Salt Lake Center
Thu 05:36:22 PM 45.0186 -103.4475 179° South 264 304 25,000  Level Salt Lake Center
Thu 05:37:24 PM 44.9494 -103.4450 177° South 262 302 25,000  Level Salt Lake Center
Thu 05:38:26 PM 44.8669 -103.4397 179° South 263 303 25,000  Level Salt Lake Center
Thu 05:39:03 PM 44.8286 -103.4389 177° South 273 314 25,000  Level Denver Center
Thu 05:40:03 PM 44.7536 -103.4339 180° South 273 314 25,000  Level Denver Center
Thu 05:41:03 PM 44.6828 -103.4347 177° South 273 314 25,000  Level Denver Center
Thu 05:42:03 PM 44.6097 -103.4294 180° South 273 314 25,000  Level Denver Center
Thu 05:43:03 PM 44.5392 -103.4303 177° South 268 308 25,000  Level Denver Center
Thu 05:44:03 PM 44.4661 -103.4253 179° South 268 308 25,000  Level Denver Center
Thu 05:45:03 PM 44.3911 -103.4231 179° South 274 315 25,000  Level Denver Center
Thu 05:46:03 PM 44.3097 -103.4214 180° South 274 315 25,000  Level Denver Center
Thu 05:47:03 PM 44.2350 -103.4222 177° South 274 315 25,000  Level Denver Center
Thu 05:48:03 PM 44.1597 -103.4172 178° South 269 310 25,000  Level Denver Center
Thu 05:49:03 PM 44.0931 -103.4147 178° South 274 315 25,000  Level Denver Center
Thu 05:50:03 PM 44.0097 -103.4103 177° South 274 315 25,000  Level Denver Center
Thu 05:51:03 PM 43.9367 -103.4053 176° South 274 315 25,000  Level Denver Center
Thu 05:52:03 PM 43.8636 -103.3975 180° South 274 315 25,000  Level Denver Center
Thu 05:53:03 PM 43.7989 -103.3978 176° South 269 310 25,000  Level Denver Center
Thu 05:54:03 PM 43.7175 -103.3903 179° South 269 310 25,000  Level Denver Center
Thu 05:55:03 PM 43.6467 -103.3881 180° South 269 310 25,000  Level Denver Center
Thu 05:56:03 PM 43.5739 -103.3889 180° South 269 310 25,000  Level Denver Center
Thu 05:57:03 PM 43.5072 -103.3894 182° South 269 310 25,000  Level Denver Center
Thu 05:58:03 PM 43.4281 -103.3933 182° South 269 310 25,000  Level Denver Center
Thu 05:59:03 PM 43.3553 -103.3969 187° South 269 310 25,000  Level Denver Center
Thu 06:00:03 PM 43.2806 -103.4092 184° South 269 310 25,000  Level Denver Center
Thu 06:01:03 PM 43.2161 -103.4150 185° South 269 310 25,000  Level Denver Center
Thu 06:02:03 PM 43.1331 -103.4247 187° South 268 308 25,000  Level Denver Center
Thu 06:03:03 PM 43.0625 -103.4367 184° South 268 308 25,000  Level Denver Center
Thu 06:04:03 PM 42.9878 -103.4431 186° South 273 314 25,000  Level Denver Center
Thu 06:05:03 PM 42.9233 -103.4519 184° South 268 308 25,000  Level Denver Center
Thu 06:06:03 PM 42.8442 -103.4586 185° South 268 308 25,000  Level Denver Center
Thu 06:07:03 PM 42.7736 -103.4675 185° South 263 303 25,000  Level Denver Center
Thu 06:08:03 PM 42.7031 -103.4767 186° South 263 303 25,000  Level Denver Center
Thu 06:09:03 PM 42.6386 -103.4853 182° South 263 303 25,000  Level Denver Center
Thu 06:10:03 PM 42.5636 -103.4886 184° South 263 303 25,000  Level Denver Center
Thu 06:11:03 PM 42.4847 -103.4953 182° South 263 303 25,000  Level Denver Center
Thu 06:12:03 PM 42.4119 -103.4986 177° South 271 312 25,000  Level Denver Center
Thu 06:13:03 PM 42.3428 -103.4933 180° South 271 312 25,000  Level Denver Center
Thu 06:14:03 PM 42.2678 -103.4942 180° South 271 312 25,000  Level Denver Center
Thu 06:15:03 PM 42.1844 -103.4950 177° South 271 312 25,000  Level Denver Center
Thu 06:16:03 PM 42.1094 -103.4903 173° South 271 312 25,000  Level Denver Center
Thu 06:17:03 PM 42.0425 -103.4792 177° South 276 318 25,000  Level Denver Center
Thu 06:18:03 PM 41.9692 -103.4744 182° South 276 318 25,000  Level Denver Center
Thu 06:19:03 PM 41.8900 -103.4778 182° South 268 308 25,000  Level Denver Center
Thu 06:20:03 PM 41.8111 -103.4817 186° South 273 314 25,000  Level Denver Center
Thu 06:21:03 PM 41.7444 -103.4903 185° South 273 314 25,000  Level Denver Center
Thu 06:22:03 PM 41.6717 -103.4992 185° South 267 307 25,000 -600 Level Denver Center
Thu 06:23:03 PM 41.5867 -103.5086 191° South 272 313 23,800 -1,250 Descending Denver Center
Thu 06:24:03 PM 41.5058 -103.5289 191° South 286 329 22,500 -3,900 Descending Denver Center
Thu 06:25:03 PM 41.4436 -103.5456 190° South 291 335 16,000 -1,450 Descending Denver Center
Thu 06:26:03 PM 41.3586 -103.5658 194° South 291 335 19,600 1,150 Climbing Denver Center
Thu 06:27:03 PM 41.2717 -103.5944 189° South 291 335 18,300 -1,050 Descending Denver Center
Thu 06:28:03 PM 41.1908 -103.6119 190° South 291 335 17,500 -750 Descending Denver Center
Thu 06:29:03 PM 41.1225 -103.6286 182° South 291 335 16,800 -650 Descending Denver Center
Thu 06:30:03 PM 41.0392 -103.6322 183° South 291 335 16,200 -400 Descending Denver Center
Thu 06:31:03 PM 40.9622 -103.6381 180° South 291 335 16,000 -100 Descending Denver Center
Thu 06:32:03 PM 40.8831 -103.6389 180° South 291 335 16,000  Level Denver Center
Thu 06:33:03 PM 40.8036 -103.6394 196° South 291 335 16,000  Level Denver Center
Thu 06:34:03 PM 40.7314 -103.6672 195° South 280 322 16,000  Level Denver Center
Thu 06:35:03 PM 40.6508 -103.6953 198° South 275 316 16,000  Level Denver Center
Thu 06:36:03 PM 40.5806 -103.7256 221° Southwest 275 316 16,000 -100 Level Denver Center
Thu 06:37:03 PM 40.5258 -103.7878 228° Southwest 263 303 15,800 -650 Descending Denver Center
Thu 06:38:03 PM 40.4753 -103.8608 228° Southwest 268 308 14,700 -900 Descending Denver Center
Thu 06:39:03 PM 40.4247 -103.9336 229° Southwest 278 320 14,000 -600 Descending Denver Center
Thu 06:40:03 PM 40.3764 -104.0064 229° Southwest 278 320 13,500 -500 Descending Denver Center
Thu 06:41:03 PM 40.3278 -104.0789 254° West 273 314 13,000 -250 Descending Denver Center
Thu 06:42:03 PM 40.3067 -104.1722 255° West 260 299 13,000  Level Denver Center
Thu 06:43:03 PM 40.2878 -104.2628 252° West 260 299 13,000  Level Denver Center
Thu 06:44:03 PM 40.2664 -104.3478 247° West 260 299 13,000  Level Denver Center
Thu 06:45:03 PM 40.2428 -104.4219 247° West 255 293 13,000 -600 Level Denver Center
Thu 06:46:03 PM 40.2169 -104.5017 224° Southwest 247 284 11,800 -1,350 Descending Denver Center
Thu 06:47:03 PM 40.1700 -104.5603 218° Southwest 240 276 10,300 -1,250 Descending Denver Center
Thu 06:48:03 PM 40.1186 -104.6133 218° Southwest 234 269 9,300 -900 Descending Denver Center
Thu 06:49:23 PM 40.0500 -104.6833 180° South 228 262 8,200 -857 Descending Denver TRACON
Thu 06:50:23 PM 39.9833 -104.6833 180° South 184 212 7,300 -900 Descending Denver TRACON
Thu 06:51:23 PM 39.9500 -104.6833 180° South 149 171 6,400 -800 Descending Denver TRACON
Thu 06:52:23 PM 39.9167 -104.6833 180° South 139 160 5,700 -700 Descending Denver TRACON

Login

Don't have an account? Register now (free) for customized features, flight alerts, and more!